Time;durP1;ratioP1;P1;durP2;ratioP2;P2;SDS_P1;SDS_P2;PMS_P1;PMS_P2;Temp;Humidity;BMP_temperature;BMP_pressure;BME280_temperature;BME280_humidity;BME280_pressure;Samples;Min_cycle;Max_cycle;Signal;HPM_P1;HPM_P2
2023/09/07 00:10:04;;;;;;;12.02;6.70;;;;;;;;;;7484485;23;20031;-78
2023/09/07 00:17:05;;;;;;;11.75;5.93;;;;;;;;;;7432575;23;20107;-78
2023/09/07 00:20:28;;;;;;;8.68;5.65;;;;;;;;;;7480004;23;20040;-78
2023/09/07 00:23:43;;;;;;;13.57;6.38;;;;;;;;;;7559587;23;20018;-78
2023/09/07 00:38:51;;;;;;;9.57;5.60;;;;;;;;;;7363201;24;20028;-79
2023/09/07 01:28:37;;;;;;;9.45;6.00;;;;;;;;;;7190887;24;20255;-78
2023/09/07 05:18:26;;;;;;;9.82;6.95;;;;;;;;;;7103324;24;20031;-78
2023/09/07 05:21:31;;;;;;;12.40;6.97;;;;;;;;;;7160376;24;20414;-78
2023/09/07 05:24:33;;;;;;;10.15;6.60;;;;;;;;;;7193201;24;20039;-77
2023/09/07 05:27:36;;;;;;;10.00;6.85;;;;;;;;;;7280156;24;20104;-77
2023/09/07 05:31:21;;;;;;;;;;;;;;;;;;;;;
2023/09/07 05:34:41;;;;;;;13.52;7.70;;;;;;;;;;7378029;23;20066;-77
2023/09/07 05:37:43;;;;;;;12.10;7.28;;;;;;;;;;7557543;23;20030;-77
2023/09/07 05:41:16;;;;;;;12.13;7.10;;;;;;;;;;7559124;23;20026;-77
2023/09/07 05:44:30;;;;;;;10.63;7.22;;;;;;;;;;7566852;23;20029;-77
2023/09/07 05:47:41;;;;;;;11.43;7.20;;;;;;;;;;7638569;23;20044;-77
2023/09/07 05:50:46;;;;;;;11.20;7.30;;;;;;;;;;7642171;23;20093;-78
2023/09/07 05:53:48;;;;;;;11.80;6.60;;;;;;;;;;7637996;23;20085;-77
2023/09/07 06:03:41;;;;;;;13.55;7.15;;;;;;;;;;7538188;23;20521;-78
2023/09/07 06:06:47;;;;;;;12.00;6.57;;;;;;;;;;7569882;23;20053;-80
2023/09/07 06:09:49;;;;;;;7.88;5.97;;;;;;;;;;7563854;23;20042;-79
2023/09/07 06:12:55;;;;;;;11.18;6.97;;;;;;;;;;7569470;23;20137;-80
2023/09/07 06:16:03;;;;;;;10.98;6.43;;;;;;;;;;7556556;23;20026;-79
2023/09/07 06:19:06;;;;;;;10.70;6.20;;;;;;;;;;7569488;23;20057;-78
2023/09/07 06:22:12;;;;;;;11.13;7.03;;;;;;;;;;7570015;23;20026;-78
2023/09/07 06:25:14;;;;;;;13.40;7.82;;;;;;;;;;7617437;23;20077;-79
2023/09/07 06:28:15;;;;;;;8.43;6.75;;;;;;;;;;7643752;23;20026;-78
2023/09/07 06:31:17;;;;;;;16.00;6.63;;;;;;;;;;7644934;23;20245;-78
2023/09/07 06:34:19;;;;;;;9.75;6.13;;;;;;;;;;7643355;23;20025;-78
2023/09/07 06:37:24;;;;;;;11.27;5.88;;;;;;;;;;7618925;23;20030;-79
2023/09/07 06:40:29;;;;;;;8.30;5.75;;;;;;;;;;7617150;23;20026;-79
2023/09/07 06:47:03;;;;;;;9.25;6.45;;;;;;;;;;7541101;23;20039;-79
2023/09/07 06:50:11;;;;;;;9.30;6.07;;;;;;;;;;7643354;23;20025;-79
2023/09/07 06:53:17;;;;;;;7.47;5.55;;;;;;;;;;7643630;23;20030;-79
2023/09/07 06:56:19;;;;;;;8.18;5.55;;;;;;;;;;7629624;23;20071;-78
2023/09/07 06:59:21;;;;;;;9.65;5.78;;;;;;;;;;7643659;23;20051;-79
2023/09/07 07:02:23;;;;;;;11.75;6.28;;;;;;;;;;7643442;23;20132;-79
2023/09/07 07:05:33;;;;;;;8.23;5.28;;;;;;;;;;7642788;23;20052;-80
2023/09/07 07:08:36;;;;;;;8.98;5.93;;;;;;;;;;7644093;23;20049;-79
2023/09/07 07:11:39;;;;;;;;;;;;;;;;;;7645146;23;20040;-79
2023/09/07 07:14:44;;;;;;;21.30;14.88;;;;;;;;;;7643829;23;19912;-78
2023/09/07 07:17:46;;;;;;;8.98;5.20;;;;;;;;;;7642541;23;20107;-79
2023/09/07 07:20:47;;;;;;;9.52;5.90;;;;;;;;;;7644465;23;20069;-79
2023/09/07 07:23:51;;;;;;;8.13;5.60;;;;;;;;;;7642477;23;20037;-78
2023/09/07 07:26:53;;;;;;;9.35;5.35;;;;;;;;;;7644116;23;20083;-78
2023/09/07 07:29:55;;;;;;;7.72;5.20;;;;;;;;;;7642292;23;20081;-79
2023/09/07 07:33:00;;;;;;;5.57;4.63;;;;;;;;;;7643741;23;20270;-78
2023/09/07 07:36:02;;;;;;;6.30;5.57;;;;;;;;;;7642941;23;20548;-80
2023/09/07 07:39:18;;;;;;;8.33;4.90;;;;;;;;;;7644449;23;20141;-80
2023/09/07 07:42:23;;;;;;;19.58;15.10;;;;;;;;;;7625544;23;20025;-82
2023/09/07 07:45:25;;;;;;;140.52;102.30;;;;;;;;;;7618179;23;20029;-82
2023/09/07 07:48:28;;;;;;;17.80;13.98;;;;;;;;;;7643671;23;20369;-78
2023/09/07 07:51:30;;;;;;;7.97;4.93;;;;;;;;;;7643348;23;20025;-78
2023/09/07 07:54:35;;;;;;;9.55;5.22;;;;;;;;;;7644351;23;20120;-78
2023/09/07 07:57:37;;;;;;;7.88;5.57;;;;;;;;;;7642663;23;20092;-80
2023/09/07 08:00:43;;;;;;;10.00;6.03;;;;;;;;;;7642593;23;20026;-80
2023/09/07 08:03:45;;;;;;;9.90;5.80;;;;;;;;;;7643543;23;20073;-79
2023/09/07 08:07:03;;;;;;;9.17;4.63;;;;;;;;;;7642151;23;20029;-79
2023/09/07 08:10:10;;;;;;;9.00;4.90;;;;;;;;;;7643132;23;20288;-79
2023/09/07 08:13:22;;;;;;;7.38;4.50;;;;;;;;;;7643697;23;20105;-79
2023/09/07 08:20:27;;;;;;;5.43;4.60;;;;;;;;;;7534877;23;20082;-79
2023/09/07 08:23:29;;;;;;;7.93;4.65;;;;;;;;;;7532508;23;20049;-79
2023/09/07 08:26:33;;;;;;;6.35;4.13;;;;;;;;;;7534779;23;20029;-79
2023/09/07 08:29:34;;;;;;;6.53;4.10;;;;;;;;;;7534183;23;20075;-79
2023/09/07 08:32:38;;;;;;;6.55;4.80;;;;;;;;;;7535367;23;20031;-79
2023/09/07 08:35:43;;;;;;;5.47;4.30;;;;;;;;;;7533859;23;20391;-79
2023/09/07 08:38:45;;;;;;;7.22;3.97;;;;;;;;;;7534849;23;20641;-79
2023/09/07 08:42:00;;;;;;;10.13;3.30;;;;;;;;;;7533659;23;20015;-79
2023/09/07 08:45:07;;;;;;;5.20;3.47;;;;;;;;;;7534632;23;20065;-79
2023/09/07 08:48:10;;;;;;;5.82;3.70;;;;;;;;;;7534488;23;20219;-79
2023/09/07 08:51:12;;;;;;;;;;;;;;;;;;7535357;23;20035;-79
2023/09/07 08:54:14;;;;;;;4.20;3.47;;;;;;;;;;7533629;23;19955;-79
2023/09/07 08:57:18;;;;;;;5.18;3.30;;;;;;;;;;7596146;23;20081;-79
2023/09/07 09:00:20;;;;;;;9.15;4.13;;;;;;;;;;7642618;23;20030;-79
2023/09/07 09:03:22;;;;;;;5.97;4.28;;;;;;;;;;7642414;23;20040;-79
2023/09/07 09:06:27;;;;;;;5.55;3.78;;;;;;;;;;7641397;23;20505;-79
2023/09/07 09:09:47;;;;;;;6.70;3.35;;;;;;;;;;7642918;23;20081;-79
2023/09/07 09:13:05;;;;;;;;;;;;;;;;;;;;;
2023/09/07 09:20:01;;;;;;;6.10;4.15;;;;;;;;;;7541679;23;20030;-78
2023/09/07 09:23:07;;;;;;;6.35;3.60;;;;;;;;;;7642337;23;20364;-79
2023/09/07 09:26:09;;;;;;;8.23;3.90;;;;;;;;;;7641525;23;20018;-79
2023/09/07 09:29:12;;;;;;;4.93;3.63;;;;;;;;;;7642277;23;20180;-79
2023/09/07 09:32:49;;;;;;;;;;;;;;;;;;;;;
2023/09/07 09:35:51;;;;;;;5.75;4.72;;;;;;;;;;7609297;23;20017;-78
2023/09/07 09:38:53;;;;;;;9.95;5.05;;;;;;;;;;7642752;23;20283;-79
2023/09/07 09:42:00;;;;;;;8.68;5.88;;;;;;;;;;7627840;23;20226;-79
2023/09/07 09:45:25;;;;;;;9.50;5.57;;;;;;;;;;7603710;23;20034;-79
2023/09/07 09:48:28;;;;;;;10.93;5.15;;;;;;;;;;7641064;23;20321;-79
2023/09/07 09:51:34;;;;;;;5.82;5.22;;;;;;;;;;7640713;23;20014;-79
2023/09/07 09:54:36;;;;;;;9.52;4.95;;;;;;;;;;7642585;23;20029;-79
2023/09/07 09:57:49;;;;;;;7.25;5.97;;;;;;;;;;7641998;23;20033;-79
2023/09/07 10:01:05;;;;;;;10.60;6.00;;;;;;;;;;7643150;23;20033;-79
2023/09/07 10:04:07;;;;;;;13.18;6.32;;;;;;;;;;7641849;23;20034;-78
2023/09/07 10:07:11;;;;;;;5.57;4.72;;;;;;;;;;7642213;23;20030;-79
2023/09/07 10:10:17;;;;;;;8.68;7.25;;;;;;;;;;7642288;23;20041;-78
2023/09/07 10:13:30;;;;;;;7.28;6.20;;;;;;;;;;7643177;23;20369;-78
2023/09/07 10:16:46;;;;;;;9.10;5.13;;;;;;;;;;7642578;23;20076;-79
2023/09/07 10:20:23;;;;;;;8.88;6.63;;;;;;;;;;7640138;23;20034;-79
2023/09/07 10:23:37;;;;;;;10.23;6.60;;;;;;;;;;7483179;23;20035;-79
2023/09/07 10:27:04;;;;;;;6.90;6.20;;;;;;;;;;7498297;23;20035;-80
2023/09/07 10:30:15;;;;;;;5.60;5.00;;;;;;;;;;7485270;23;20125;-79
2023/09/07 10:33:26;;;;;;;8.68;7.53;;;;;;;;;;7486869;23;20026;-78
2023/09/07 10:36:29;;;;;;;6.25;4.55;;;;;;;;;;7533083;23;20031;-78
2023/09/07 10:39:42;;;;;;;;;;;;;;;;;;;;;
2023/09/07 10:49:35;;;;;;;5.22;4.63;;;;;;;;;;7523466;23;20026;-79
2023/09/07 10:52:46;;;;;;;6.63;5.68;;;;;;;;;;7520250;23;20023;-79
2023/09/07 10:55:55;;;;;;;7.13;5.97;;;;;;;;;;7531733;23;20070;-79
2023/09/07 10:59:24;;;;;;;6.50;3.95;;;;;;;;;;7553428;23;20069;-79
2023/09/07 11:02:34;;;;;;;3.67;3.33;;;;;;;;;;7640784;23;20253;-78
2023/09/07 11:05:42;;;;;;;6.38;3.60;;;;;;;;;;7643504;23;20126;-79
2023/09/07 11:21:21;;;;;;;;;;;;;;;;;;;;;
2023/09/07 11:49:08;;;;;;;4.13;3.15;;;;;;;;;;7230053;24;20053;-79
2023/09/07 11:56:22;;;;;;;4.87;3.30;;;;;;;;;;7306582;24;20287;-79
2023/09/07 12:07:39;;;;;;;;;;;;;;;;;;;;;
2023/09/07 12:22:15;;;;;;;3.88;3.05;;;;;;;;;;7346157;24;20035;-79
2023/09/07 12:25:20;;;;;;;4.63;3.45;;;;;;;;;;7427101;23;20275;-80
2023/09/07 12:28:25;;;;;;;4.55;3.05;;;;;;;;;;7426971;24;20363;-79
2023/09/07 12:31:27;;;;;;;5.43;3.50;;;;;;;;;;7417364;23;20208;-79
2023/09/07 12:34:31;;;;;;;6.50;3.33;;;;;;;;;;7430843;24;20051;-79
2023/09/07 12:37:36;;;;;;;3.60;3.10;;;;;;;;;;7430901;24;20073;-79
2023/09/07 12:40:39;;;;;;;3.55;3.25;;;;;;;;;;7578805;23;20041;-79
2023/09/07 12:47:05;;;;;;;6.85;4.10;;;;;;;;;;7566307;23;20330;-79
2023/09/07 12:50:07;;;;;;;4.47;3.45;;;;;;;;;;7608585;23;20318;-79
2023/09/07 12:53:10;;;;;;;5.53;3.10;;;;;;;;;;7609862;23;20235;-79
2023/09/07 12:56:25;;;;;;;5.05;3.50;;;;;;;;;;7609822;23;20030;-79
2023/09/07 13:00:20;;;;;;;4.45;3.22;;;;;;;;;;7593068;23;20030;-79
2023/09/07 13:03:23;;;;;;;6.03;3.97;;;;;;;;;;7609581;23;20052;-79
2023/09/07 13:10:03;;;;;;;6.68;3.00;;;;;;;;;;7588617;23;20289;-79
2023/09/07 13:13:29;;;;;;;5.32;3.20;;;;;;;;;;7604163;23;20030;-78
2023/09/07 13:16:39;;;;;;;4.18;3.10;;;;;;;;;;7606696;23;20061;-79
2023/09/07 13:19:44;;;;;;;4.20;3.47;;;;;;;;;;7602398;23;20064;-79
2023/09/07 13:22:49;;;;;;;4.78;3.72;;;;;;;;;;7605740;23;20022;-80
2023/09/07 13:25:52;;;;;;;6.63;3.58;;;;;;;;;;7605163;23;20238;-79
2023/09/07 13:29:01;;;;;;;4.82;3.10;;;;;;;;;;7606667;23;20101;-79
2023/09/07 13:32:03;;;;;;;4.75;3.17;;;;;;;;;;7605232;23;20032;-79
2023/09/07 13:35:28;;;;;;;5.25;2.95;;;;;;;;;;7592486;23;20071;-79
2023/09/07 13:38:30;;;;;;;5.90;3.90;;;;;;;;;;7599392;23;20029;-79
2023/09/07 13:41:33;;;;;;;7.03;3.70;;;;;;;;;;7604812;23;20050;-79
2023/09/07 13:44:41;;;;;;;7.07;3.50;;;;;;;;;;7606378;23;20302;-79
2023/09/07 13:47:44;;;;;;;4.93;3.28;;;;;;;;;;7603805;23;20074;-79
2023/09/07 13:50:46;;;;;;;6.57;4.22;;;;;;;;;;7605849;23;20258;-79
2023/09/07 13:53:49;;;;;;;4.93;3.60;;;;;;;;;;7605500;23;20024;-79
2023/09/07 13:56:56;;;;;;;7.20;4.07;;;;;;;;;;7606808;23;20036;-78
2023/09/07 13:59:58;;;;;;;6.88;4.30;;;;;;;;;;7604135;23;20295;-79
2023/09/07 14:06:22;;;;;;;6.03;4.38;;;;;;;;;;7584994;23;20049;-79
2023/09/07 14:09:37;;;;;;;7.78;3.97;;;;;;;;;;7602149;23;20029;-79
2023/09/07 14:20:13;;;;;;;10.45;4.20;;;;;;;;;;7589727;23;20125;-79
2023/09/07 14:23:15;;;;;;;4.38;3.97;;;;;;;;;;7605826;23;20247;-79
2023/09/07 14:34:16;;;;;;;8.93;4.45;;;;;;;;;;6310948;27;20811;-79
2023/09/07 14:41:18;;;;;;;7.15;5.30;;;;;;;;;;6245793;28;20512;-79
2023/09/07 14:44:30;;;;;;;;;;;;;;;;;;;;;
2023/09/07 14:47:32;;;;;;;6.25;3.97;;;;;;;;;;6178418;28;20391;-80
2023/09/07 14:50:40;;;;;;;4.75;3.53;;;;;;;;;;6257199;28;20064;-80
2023/09/07 14:53:55;;;;;;;5.70;3.92;;;;;;;;;;6241844;28;20069;-79
2023/09/07 14:57:01;;;;;;;4.47;3.45;;;;;;;;;;6240823;28;20084;-79
2023/09/07 15:00:20;;;;;;;;;;;;;;;;;;;;;
2023/09/07 15:03:25;;;;;;;7.88;4.13;;;;;;;;;;6231451;28;20099;-79
2023/09/07 15:07:00;;;;;;;5.03;3.47;;;;;;;;;;6264550;28;20095;-79
2023/09/07 15:10:11;;;;;;;4.47;3.63;;;;;;;;;;6266262;28;20064;-79
2023/09/07 15:13:21;;;;;;;5.47;3.70;;;;;;;;;;6270192;28;20050;-81
2023/09/07 15:16:24;;;;;;;5.18;3.75;;;;;;;;;;6256523;28;20116;-79
2023/09/07 15:19:30;;;;;;;6.28;3.60;;;;;;;;;;6341219;28;20047;-79
2023/09/07 15:22:34;;;;;;;3.97;3.33;;;;;;;;;;6341281;27;20052;-80
2023/09/07 15:25:36;;;;;;;5.95;3.03;;;;;;;;;;6342590;28;20062;-79
2023/09/07 15:29:14;;;;;;;5.55;3.75;;;;;;;;;;6341798;28;20048;-80
2023/09/07 15:32:33;;;;;;;6.97;3.80;;;;;;;;;;6349431;28;20250;-80
2023/09/07 15:39:05;;;;;;;4.50;3.15;;;;;;;;;;6351259;28;20339;-79
2023/09/07 15:45:38;;;;;;;5.50;3.25;;;;;;;;;;6338934;28;20067;-81
2023/09/07 15:48:40;;;;;;;5.05;3.60;;;;;;;;;;6349925;28;20089;-79
2023/09/07 15:51:42;;;;;;;6.05;3.40;;;;;;;;;;6349933;28;20858;-79
2023/09/07 15:54:48;;;;;;;5.68;3.92;;;;;;;;;;6352429;28;20058;-79
2023/09/07 15:57:56;;;;;;;6.65;3.55;;;;;;;;;;6349681;28;20052;-80
2023/09/07 16:01:00;;;;;;;6.30;3.60;;;;;;;;;;6348543;28;20130;-79
2023/09/07 16:04:09;;;;;;;6.05;4.03;;;;;;;;;;6348619;27;20081;-80
2023/09/07 16:07:15;;;;;;;7.47;3.80;;;;;;;;;;6348477;28;20044;-79
2023/09/07 16:10:42;;;;;;;7.68;3.80;;;;;;;;;;6346116;28;20413;-80
2023/09/07 16:13:44;;;;;;;5.68;3.67;;;;;;;;;;6350222;28;22214;-80
2023/09/07 16:16:46;;;;;;;6.28;4.30;;;;;;;;;;6351761;28;20387;-80
2023/09/07 16:19:47;;;;;;;5.85;4.20;;;;;;;;;;6334707;28;20049;-80
2023/09/07 16:22:50;;;;;;;6.07;5.47;;;;;;;;;;6351811;28;20063;-80
2023/09/07 16:25:53;;;;;;;7.28;4.68;;;;;;;;;;6350899;28;20047;-79
2023/09/07 16:28:55;;;;;;;6.22;3.92;;;;;;;;;;6352716;28;20332;-79
2023/09/07 16:32:05;;;;;;;6.63;4.22;;;;;;;;;;6349481;28;20051;-79
2023/09/07 16:35:27;;;;;;;5.38;4.70;;;;;;;;;;6349937;28;20059;-80
2023/09/07 16:38:29;;;;;;;9.95;5.57;;;;;;;;;;6331538;28;20143;-80
2023/09/07 16:41:35;;;;;;;8.55;4.53;;;;;;;;;;6338792;28;20051;-79
2023/09/07 16:44:37;;;;;;;9.23;5.78;;;;;;;;;;6349481;28;20051;-80
2023/09/07 16:47:44;;;;;;;8.68;5.00;;;;;;;;;;6338463;27;20256;-79
2023/09/07 16:54:04;;;;;;;9.15;4.88;;;;;;;;;;6334172;28;20319;-79
2023/09/07 16:57:43;;;;;;;6.75;4.72;;;;;;;;;;6327661;28;20048;-80
2023/09/07 17:05:14;;;;;;;12.45;5.82;;;;;;;;;;6334895;28;20051;-80
2023/09/07 17:08:27;;;;;;;8.77;4.35;;;;;;;;;;6220881;28;20224;-80
2023/09/07 17:11:29;;;;;;;7.75;4.63;;;;;;;;;;6219815;28;20109;-80
2023/09/07 17:14:31;;;;;;;;;;;;;;;;;;6224907;28;20058;-80
2023/09/07 17:17:35;;;;;;;8.23;4.53;;;;;;;;;;6222734;28;21694;-79
2023/09/07 17:20:45;;;;;;;6.03;4.47;;;;;;;;;;6212971;28;20052;-79
2023/09/07 17:23:53;;;;;;;5.80;3.88;;;;;;;;;;6221171;28;20357;-80
2023/09/07 17:27:24;;;;;;;5.28;4.15;;;;;;;;;;6222456;28;20050;-80
2023/09/07 17:30:34;;;;;;;7.60;3.83;;;;;;;;;;6180794;28;20057;-79
2023/09/07 17:34:27;;;;;;;7.05;3.80;;;;;;;;;;6211119;28;20081;-79
2023/09/07 17:41:10;;;;;;;4.28;3.67;;;;;;;;;;6100779;28;20373;-80
2023/09/07 18:37:40;;;;;;;13.07;5.68;;;;;;;;;;6075557;28;20058;-83
2023/09/07 18:45:22;;;;;;;9.73;5.15;;;;;;;;;;6055054;29;20146;-84
2023/09/07 18:52:19;;;;;;;;;;;;;;;;;;;;;
2023/09/07 18:55:55;;;;;;;7.18;4.50;;;;;;;;;;6157803;28;20090;-85
2023/09/07 19:29:47;;;;;;;11.65;5.53;;;;;;;;;;5962954;29;20061;-81
2023/09/07 19:33:02;;;;;;;14.93;5.55;;;;;;;;;;5944262;29;20071;-82
2023/09/07 19:36:08;;;;;;;14.88;6.45;;;;;;;;;;5953913;29;20145;-82
2023/09/07 19:39:10;;;;;;;13.65;6.72;;;;;;;;;;6029979;29;20185;-74
2023/09/07 19:42:12;;;;;;;10.25;6.05;;;;;;;;;;6050057;29;20150;-74
2023/09/07 19:45:14;;;;;;;12.15;5.93;;;;;;;;;;6102433;29;20344;-74
2023/09/07 19:48:16;;;;;;;11.35;5.88;;;;;;;;;;6100791;29;20142;-74
2023/09/07 19:58:55;;;;;;;11.25;6.88;;;;;;;;;;6225639;28;20060;-80
2023/09/07 20:09:59;;;;;;;11.82;7.32;;;;;;;;;;6165427;28;20054;-80
2023/09/07 20:13:53;;;;;;;7.43;5.35;;;;;;;;;;6127970;28;20088;-80
2023/09/07 20:20:29;;;;;;;11.65;5.47;;;;;;;;;;6058501;29;20364;-81
2023/09/07 20:23:59;;;;;;;;;;;;;;;;;;;;;
2023/09/07 21:00:09;;;;;;;12.90;6.22;;;;;;;;;;6027532;29;20045;-80
2023/09/07 21:03:41;;;;;;;15.15;7.15;;;;;;;;;;6085773;29;20120;-80
2023/09/07 21:06:48;;;;;;;13.10;7.72;;;;;;;;;;6153228;28;20785;-80
2023/09/07 21:10:28;;;;;;;13.55;7.03;;;;;;;;;;6318050;27;20044;-79
2023/09/07 21:13:46;;;;;;;13.05;7.57;;;;;;;;;;6307646;28;20058;-80
2023/09/07 21:24:51;;;;;;;14.30;7.80;;;;;;;;;;6170220;28;20057;-82
2023/09/07 21:27:53;;;;;;;13.07;5.80;;;;;;;;;;6249246;28;20285;-82
2023/09/07 21:30:55;;;;;;;11.27;5.93;;;;;;;;;;6255935;28;20117;-83
2023/09/07 21:33:58;;;;;;;7.90;6.00;;;;;;;;;;6238257;28;20053;-82
2023/09/07 21:37:03;;;;;;;8.07;5.80;;;;;;;;;;6269935;28;20057;-82
2023/09/07 21:40:39;;;;;;;10.85;6.47;;;;;;;;;;6278085;28;20072;-83
2023/09/07 21:47:24;;;;;;;11.00;7.38;;;;;;;;;;6280080;28;20169;-82
2023/09/07 21:54:12;;;;;;;8.10;6.68;;;;;;;;;;6224930;28;20056;-82
2023/09/07 22:00:48;;;;;;;12.98;6.40;;;;;;;;;;6276256;28;20725;-82
2023/09/07 22:03:50;;;;;;;13.18;7.13;;;;;;;;;;6331085;28;20056;-83
2023/09/07 22:06:54;;;;;;;8.55;6.15;;;;;;;;;;6347076;27;20112;-83
2023/09/07 22:09:56;;;;;;;12.68;6.53;;;;;;;;;;6340302;28;20319;-81
2023/09/07 22:12:59;;;;;;;9.73;6.55;;;;;;;;;;6331940;28;20055;-82
2023/09/07 22:16:32;;;;;;;13.75;6.60;;;;;;;;;;6329620;28;20058;-82
2023/09/07 22:19:34;;;;;;;9.20;6.60;;;;;;;;;;6338565;28;20165;-82
2023/09/07 22:22:36;;;;;;;8.88;6.40;;;;;;;;;;6336365;28;20047;-82
2023/09/07 22:25:38;;;;;;;10.25;6.43;;;;;;;;;;6324136;28;20106;-82
2023/09/07 22:28:40;;;;;;;11.93;7.28;;;;;;;;;;6329883;28;20062;-82
2023/09/07 22:39:35;;;;;;;13.95;7.90;;;;;;;;;;6345934;27;20062;-84
2023/09/07 22:43:28;;;;;;;15.60;8.60;;;;;;;;;;6356379;28;20047;-80
2023/09/07 22:59:13;;;;;;;11.63;6.55;;;;;;;;;;6211990;28;20045;-88
2023/09/07 23:52:58;;;;;;;;;;;;;;;;;;;;;
2023/09/07 23:56:02;;;;;;;11.30;6.18;;;;;;;;;;6158424;28;20081;-88
2023/09/07 23:59:08;;;;;;;9.50;6.40;;;;;;;;;;6218014;28;20068;-84
